Aegean Navigator — SWBI — position and weather

sailwx.info

Track history (hours):
 
Tides and Currents Weather Stations Pressure Air Temp Water Temp Dewpoint Dewpoint Depression Visibility Wind Speed Wind Dir Waves Ship Positions

Aegean Navigator

Last reported at 2015-Feb-27 11:28 UTC. Time now 2015-Feb-28 13:59 UTC.
Position N 39°06' W 009°56'.

Length 274 m; draft 15.5 m.

Type: Tanker. MMSI: 240634000.

Date/timePositionNaut miles runAvg speedWind from/ knotsBaromVisibWave heightAir tempDewpointWater temp
2015-Feb-27 11:28N 39°06' W 009°56'11 9.7
2015-Feb-27 10:23N 38°55' W 009°56'8 9.9
2015-Feb-27 09:33N 38°47' W 009°56'1010.0
2015-Feb-27 08:33N 38°37' W 009°55'1010.2
2015-Feb-27 07:33N 38°27' W 009°52'1010.4
2015-Feb-27 06:33N 38°17' W 009°49'1110.6
2015-Feb-27 05:30N 38°06' W 009°46'2010.3
2015-Feb-27 03:32N 37°46' W 009°40'1010.2
2015-Feb-27 02:33N 37°36' W 009°38'218 9.4
2015-Feb-26 03:26N 35°58' W 005°36'8 9.1
2015-Feb-26 02:34N 36°00' W 005°26'8 8.1
2015-Feb-26 01:33N 36°02' W 005°16'  
2015-Feb-22 07:16N 36°39' E 013°47'1111.0
2015-Feb-22 06:18N 36°35' E 013°60'810.8
2015-Feb-22 05:33N 36°33' E 014°10'1110.8
2015-Feb-22 04:34N 36°30' E 014°22'  
2015-Feb-17 13:15N 40°52' E 028°24'810.6
2015-Feb-17 12:30N 40°53' E 028°34'1010.3
2015-Feb-17 11:33N 40°54' E 028°47'  
Track history (hours):
 
Tides and Currents Weather Stations Pressure Air Temp Water Temp Dewpoint Dewpoint Depression Visibility Wind Speed Wind Dir Waves Ship Positions

Aegean Navigator

Last reported at 2015-Feb-27 11:28 UTC. Time now 2015-Feb-28 13:59 UTC.
Position N 39°06' W 009°56'.

Length 274 m; draft 15.5 m.

Type: Tanker. MMSI: 240634000.

Date/timePositionNaut miles runAvg speedWind from/ knotsBaromVisibWave heightAir tempDewpointWater temp
2015-Feb-27 11:28N 39°06' W 009°56'11 9.7
2015-Feb-27 10:23N 38°55' W 009°56'8 9.9
2015-Feb-27 09:33N 38°47' W 009°56'1010.0
2015-Feb-27 08:33N 38°37' W 009°55'1010.2
2015-Feb-27 07:33N 38°27' W 009°52'1010.4
2015-Feb-27 06:33N 38°17' W 009°49'1110.6
2015-Feb-27 05:30N 38°06' W 009°46'2010.3
2015-Feb-27 03:32N 37°46' W 009°40'1010.2
2015-Feb-27 02:33N 37°36' W 009°38'218 9.4
2015-Feb-26 03:26N 35°58' W 005°36'8 9.1
2015-Feb-26 02:34N 36°00' W 005°26'8 8.1
2015-Feb-26 01:33N 36°02' W 005°16'  
2015-Feb-22 07:16N 36°39' E 013°47'1111.0
2015-Feb-22 06:18N 36°35' E 013°60'810.8
2015-Feb-22 05:33N 36°33' E 014°10'1110.8
2015-Feb-22 04:34N 36°30' E 014°22'  
2015-Feb-17 13:15N 40°52' E 028°24'810.6
2015-Feb-17 12:30N 40°53' E 028°34'1010.3
2015-Feb-17 11:33N 40°54' E 028°47'  

Dump ship's entire track history